sensor_id;sensor_type;location;lat;lon;timestamp;P1;durP1;ratioP1;P2;durP2;ratioP2
22113;SDS011;11223;49.968;9.062;2023-04-25T00:00:59;6.80;;;6.30;;
22113;SDS011;11223;49.968;9.062;2023-04-25T00:03:24;9.60;;;6.03;;
22113;SDS011;11223;49.968;9.062;2023-04-25T00:05:50;7.63;;;6.77;;
22113;SDS011;11223;49.968;9.062;2023-04-25T00:08:16;6.47;;;5.95;;
22113;SDS011;11223;49.968;9.062;2023-04-25T00:10:42;6.67;;;6.07;;
22113;SDS011;11223;49.968;9.062;2023-04-25T00:13:08;6.40;;;5.80;;
22113;SDS011;11223;49.968;9.062;2023-04-25T00:15:36;6.30;;;5.80;;
22113;SDS011;11223;49.968;9.062;2023-04-25T00:18:02;8.15;;;6.15;;
22113;SDS011;11223;49.968;9.062;2023-04-25T00:20:28;6.27;;;5.67;;
22113;SDS011;11223;49.968;9.062;2023-04-25T00:22:54;7.80;;;6.38;;
22113;SDS011;11223;49.968;9.062;2023-04-25T00:25:20;6.23;;;5.63;;
22113;SDS011;11223;49.968;9.062;2023-04-25T00:27:46;5.50;;;5.00;;
22113;SDS011;11223;49.968;9.062;2023-04-25T00:30:12;6.73;;;6.07;;
22113;SDS011;11223;49.968;9.062;2023-04-25T00:32:38;7.05;;;6.38;;
22113;SDS011;11223;49.968;9.062;2023-04-25T00:35:03;5.60;;;5.10;;
22113;SDS011;11223;49.968;9.062;2023-04-25T00:37:29;6.20;;;5.70;;
22113;SDS011;11223;49.968;9.062;2023-04-25T00:39:55;6.87;;;6.03;;
22113;SDS011;11223;49.968;9.062;2023-04-25T00:42:23;5.60;;;5.10;;
22113;SDS011;11223;49.968;9.062;2023-04-25T00:44:49;6.00;;;5.50;;
22113;SDS011;11223;49.968;9.062;2023-04-25T00:47:17;5.28;;;4.82;;
22113;SDS011;11223;49.968;9.062;2023-04-25T00:49:42;5.30;;;4.90;;
22113;SDS011;11223;49.968;9.062;2023-04-25T00:52:08;4.77;;;4.37;;
22113;SDS011;11223;49.968;9.062;2023-04-25T00:54:34;4.10;;;3.80;;
22113;SDS011;11223;49.968;9.062;2023-04-25T00:57:00;4.67;;;4.27;;
22113;SDS011;11223;49.968;9.062;2023-04-25T00:59:26;4.90;;;4.40;;
22113;SDS011;11223;49.968;9.062;2023-04-25T01:01:53;5.20;;;4.70;;
22113;SDS011;11223;49.968;9.062;2023-04-25T01:04:18;4.97;;;4.57;;
22113;SDS011;11223;49.968;9.062;2023-04-25T01:06:45;5.00;;;4.60;;
22113;SDS011;11223;49.968;9.062;2023-04-25T01:09:10;5.30;;;4.80;;
22113;SDS011;11223;49.968;9.062;2023-04-25T01:11:37;5.30;;;4.82;;
22113;SDS011;11223;49.968;9.062;2023-04-25T01:14:05;4.90;;;4.53;;
22113;SDS011;11223;49.968;9.062;2023-04-25T01:16:32;4.87;;;4.47;;
22113;SDS011;11223;49.968;9.062;2023-04-25T01:18:58;4.70;;;4.30;;
22113;SDS011;11223;49.968;9.062;2023-04-25T01:21:24;5.15;;;4.70;;
22113;SDS011;11223;49.968;9.062;2023-04-25T01:23:52;5.72;;;5.18;;
22113;SDS011;11223;49.968;9.062;2023-04-25T01:26:18;6.63;;;6.03;;
22113;SDS011;11223;49.968;9.062;2023-04-25T01:28:46;4.97;;;4.57;;
22113;SDS011;11223;49.968;9.062;2023-04-25T01:31:12;6.20;;;5.10;;
22113;SDS011;11223;49.968;9.062;2023-04-25T01:33:38;5.30;;;4.80;;
22113;SDS011;11223;49.968;9.062;2023-04-25T01:36:04;6.07;;;5.47;;
22113;SDS011;11223;49.968;9.062;2023-04-25T01:38:31;5.60;;;5.10;;
22113;SDS011;11223;49.968;9.062;2023-04-25T01:40:56;4.73;;;4.33;;
22113;SDS011;11223;49.968;9.062;2023-04-25T01:43:22;4.70;;;4.23;;
22113;SDS011;11223;49.968;9.062;2023-04-25T01:45:48;5.17;;;4.77;;
22113;SDS011;11223;49.968;9.062;2023-04-25T01:48:14;5.03;;;4.63;;
22113;SDS011;11223;49.968;9.062;2023-04-25T01:50:40;5.60;;;5.10;;
22113;SDS011;11223;49.968;9.062;2023-04-25T01:53:06;5.25;;;4.80;;
22113;SDS011;11223;49.968;9.062;2023-04-25T01:55:34;6.97;;;5.50;;
22113;SDS011;11223;49.968;9.062;2023-04-25T01:58:01;6.10;;;5.53;;
22113;SDS011;11223;49.968;9.062;2023-04-25T02:00:28;5.68;;;5.28;;
22113;SDS011;11223;49.968;9.062;2023-04-25T02:02:53;7.37;;;4.87;;
22113;SDS011;11223;49.968;9.062;2023-04-25T02:05:22;5.93;;;5.38;;
22113;SDS011;11223;49.968;9.062;2023-04-25T02:07:47;6.77;;;6.07;;
22113;SDS011;11223;49.968;9.062;2023-04-25T02:10:13;7.60;;;6.10;;
22113;SDS011;11223;49.968;9.062;2023-04-25T02:12:39;7.22;;;6.53;;
22113;SDS011;11223;49.968;9.062;2023-04-25T02:15:05;6.00;;;5.50;;
22113;SDS011;11223;49.968;9.062;2023-04-25T02:17:31;7.50;;;6.80;;
22113;SDS011;11223;49.968;9.062;2023-04-25T02:19:57;6.50;;;5.90;;
22113;SDS011;11223;49.968;9.062;2023-04-25T02:22:22;5.83;;;5.33;;
22113;SDS011;11223;49.968;9.062;2023-04-25T02:24:48;5.80;;;5.27;;
22113;SDS011;11223;49.968;9.062;2023-04-25T02:27:14;6.53;;;5.90;;
22113;SDS011;11223;49.968;9.062;2023-04-25T02:29:40;5.67;;;5.10;;
22113;SDS011;11223;49.968;9.062;2023-04-25T02:32:05;6.13;;;5.53;;
22113;SDS011;11223;49.968;9.062;2023-04-25T02:34:31;6.33;;;5.60;;
22113;SDS011;11223;49.968;9.062;2023-04-25T02:36:57;6.47;;;5.87;;
22113;SDS011;11223;49.968;9.062;2023-04-25T02:39:22;6.20;;;5.70;;
22113;SDS011;11223;49.968;9.062;2023-04-25T02:41:50;6.88;;;6.18;;
22113;SDS011;11223;49.968;9.062;2023-04-25T02:44:15;5.77;;;5.27;;
22113;SDS011;11223;49.968;9.062;2023-04-25T02:46:41;7.03;;;6.47;;
22113;SDS011;11223;49.968;9.062;2023-04-25T02:49:06;6.60;;;6.00;;
22113;SDS011;11223;49.968;9.062;2023-04-25T02:51:32;7.97;;;7.03;;
22113;SDS011;11223;49.968;9.062;2023-04-25T02:53:58;7.20;;;6.50;;
22113;SDS011;11223;49.968;9.062;2023-04-25T02:56:23;7.20;;;6.50;;
22113;SDS011;11223;49.968;9.062;2023-04-25T02:58:51;7.20;;;6.53;;
22113;SDS011;11223;49.968;9.062;2023-04-25T03:01:17;7.10;;;6.50;;
22113;SDS011;11223;49.968;9.062;2023-04-25T03:03:42;7.57;;;6.87;;
22113;SDS011;11223;49.968;9.062;2023-04-25T03:06:08;6.20;;;5.60;;
22113;SDS011;11223;49.968;9.062;2023-04-25T03:08:33;7.10;;;6.40;;
22113;SDS011;11223;49.968;9.062;2023-04-25T03:10:59;7.60;;;6.17;;
22113;SDS011;11223;49.968;9.062;2023-04-25T03:13:25;8.00;;;7.30;;
22113;SDS011;11223;49.968;9.062;2023-04-25T03:15:52;7.28;;;6.68;;
22113;SDS011;11223;49.968;9.062;2023-04-25T03:18:18;7.33;;;6.67;;
22113;SDS011;11223;49.968;9.062;2023-04-25T03:20:43;6.80;;;6.10;;
22113;SDS011;11223;49.968;9.062;2023-04-25T03:23:09;7.07;;;6.30;;
22113;SDS011;11223;49.968;9.062;2023-04-25T03:25:34;7.37;;;6.73;;
22113;SDS011;11223;49.968;9.062;2023-04-25T03:28:00;6.73;;;6.13;;
22113;SDS011;11223;49.968;9.062;2023-04-25T03:30:25;8.60;;;7.70;;
22113;SDS011;11223;49.968;9.062;2023-04-25T03:32:51;8.50;;;7.63;;
22113;SDS011;11223;49.968;9.062;2023-04-25T03:35:17;8.13;;;7.33;;
22113;SDS011;11223;49.968;9.062;2023-04-25T03:37:42;9.50;;;8.60;;
22113;SDS011;11223;49.968;9.062;2023-04-25T03:40:11;8.63;;;7.78;;
22113;SDS011;11223;49.968;9.062;2023-04-25T03:42:36;8.13;;;7.32;;
22113;SDS011;11223;49.968;9.062;2023-04-25T03:45:02;8.00;;;7.27;;
22113;SDS011;11223;49.968;9.062;2023-04-25T03:47:28;8.40;;;7.60;;
22113;SDS011;11223;49.968;9.062;2023-04-25T03:49:54;7.90;;;7.17;;
22113;SDS011;11223;49.968;9.062;2023-04-25T03:52:20;8.33;;;6.90;;
22113;SDS011;11223;49.968;9.062;2023-04-25T03:54:45;7.63;;;6.90;;
22113;SDS011;11223;49.968;9.062;2023-04-25T03:57:11;8.17;;;7.43;;
22113;SDS011;11223;49.968;9.062;2023-04-25T03:59:36;7.73;;;7.03;;
22113;SDS011;11223;49.968;9.062;2023-04-25T04:02:02;8.43;;;7.53;;
22113;SDS011;11223;49.968;9.062;2023-04-25T04:04:27;8.13;;;6.80;;
22113;SDS011;11223;49.968;9.062;2023-04-25T04:06:53;7.90;;;7.10;;
22113;SDS011;11223;49.968;9.062;2023-04-25T04:09:19;8.37;;;7.53;;
22113;SDS011;11223;49.968;9.062;2023-04-25T04:11:45;9.77;;;8.27;;
22113;SDS011;11223;49.968;9.062;2023-04-25T04:14:11;7.30;;;6.67;;
22113;SDS011;11223;49.968;9.062;2023-04-25T04:16:36;8.20;;;7.50;;
22113;SDS011;11223;49.968;9.062;2023-04-25T04:19:02;9.10;;;8.27;;
22113;SDS011;11223;49.968;9.062;2023-04-25T04:21:28;8.43;;;7.70;;
22113;SDS011;11223;49.968;9.062;2023-04-25T04:23:53;9.10;;;8.30;;
22113;SDS011;11223;49.968;9.062;2023-04-25T04:26:19;10.63;;;8.63;;
22113;SDS011;11223;49.968;9.062;2023-04-25T04:28:48;8.65;;;7.80;;
22113;SDS011;11223;49.968;9.062;2023-04-25T04:31:15;8.43;;;7.55;;
22113;SDS011;11223;49.968;9.062;2023-04-25T04:33:43;9.38;;;8.32;;
22113;SDS011;11223;49.968;9.062;2023-04-25T04:36:09;8.55;;;7.75;;
22113;SDS011;11223;49.968;9.062;2023-04-25T04:38:35;9.03;;;8.13;;
22113;SDS011;11223;49.968;9.062;2023-04-25T04:41:01;9.30;;;8.43;;
22113;SDS011;11223;49.968;9.062;2023-04-25T04:43:27;8.70;;;7.97;;
22113;SDS011;11223;49.968;9.062;2023-04-25T04:45:53;9.73;;;8.75;;
22113;SDS011;11223;49.968;9.062;2023-04-25T04:48:21;10.38;;;9.38;;
22113;SDS011;11223;49.968;9.062;2023-04-25T04:50:46;9.73;;;8.80;;
22113;SDS011;11223;49.968;9.062;2023-04-25T04:53:13;9.03;;;8.10;;
22113;SDS011;11223;49.968;9.062;2023-04-25T04:55:38;9.30;;;8.40;;
22113;SDS011;11223;49.968;9.062;2023-04-25T04:58:06;9.70;;;8.75;;
22113;SDS011;11223;49.968;9.062;2023-04-25T05:00:32;10.85;;;9.57;;
22113;SDS011;11223;49.968;9.062;2023-04-25T05:02:58;10.03;;;9.13;;
22113;SDS011;11223;49.968;9.062;2023-04-25T05:05:23;10.50;;;9.50;;
22113;SDS011;11223;49.968;9.062;2023-04-25T05:07:49;8.90;;;8.05;;
22113;SDS011;11223;49.968;9.062;2023-04-25T05:10:16;10.00;;;9.00;;
22113;SDS011;11223;49.968;9.062;2023-04-25T05:12:42;10.52;;;9.52;;
22113;SDS011;11223;49.968;9.062;2023-04-25T05:15:07;10.27;;;9.33;;
22113;SDS011;11223;49.968;9.062;2023-04-25T05:17:33;10.30;;;9.40;;
22113;SDS011;11223;49.968;9.062;2023-04-25T05:19:59;11.57;;;10.13;;
22113;SDS011;11223;49.968;9.062;2023-04-25T05:22:25;9.97;;;9.07;;
22113;SDS011;11223;49.968;9.062;2023-04-25T05:24:51;12.73;;;9.23;;
22113;SDS011;11223;49.968;9.062;2023-04-25T05:27:17;8.63;;;7.63;;
22113;SDS011;11223;49.968;9.062;2023-04-25T05:29:43;10.00;;;8.40;;
22113;SDS011;11223;49.968;9.062;2023-04-25T05:32:09;9.00;;;8.10;;
22113;SDS011;11223;49.968;9.062;2023-04-25T05:34:34;10.07;;;8.10;;
22113;SDS011;11223;49.968;9.062;2023-04-25T05:37:00;9.73;;;7.60;;
22113;SDS011;11223;49.968;9.062;2023-04-25T05:39:26;10.37;;;8.27;;
22113;SDS011;11223;49.968;9.062;2023-04-25T05:41:51;8.33;;;7.53;;
22113;SDS011;11223;49.968;9.062;2023-04-25T05:44:17;9.30;;;7.50;;
22113;SDS011;11223;49.968;9.062;2023-04-25T05:46:44;8.80;;;7.88;;
22113;SDS011;11223;49.968;9.062;2023-04-25T05:49:10;7.70;;;6.90;;
22113;SDS011;11223;49.968;9.062;2023-04-25T05:51:35;10.50;;;8.30;;
22113;SDS011;11223;49.968;9.062;2023-04-25T05:54:01;7.67;;;6.97;;
22113;SDS011;11223;49.968;9.062;2023-04-25T05:56:26;9.67;;;8.27;;
22113;SDS011;11223;49.968;9.062;2023-04-25T05:58:52;13.00;;;7.40;;
22113;SDS011;11223;49.968;9.062;2023-04-25T06:01:18;9.80;;;7.90;;
22113;SDS011;11223;49.968;9.062;2023-04-25T06:03:43;12.33;;;8.50;;
22113;SDS011;11223;49.968;9.062;2023-04-25T06:06:09;9.57;;;7.73;;
22113;SDS011;11223;49.968;9.062;2023-04-25T06:08:36;12.13;;;8.48;;
22113;SDS011;11223;49.968;9.062;2023-04-25T06:11:02;8.70;;;7.22;;
22113;SDS011;11223;49.968;9.062;2023-04-25T06:13:28;9.20;;;7.20;;
22113;SDS011;11223;49.968;9.062;2023-04-25T06:15:53;12.57;;;8.10;;
22113;SDS011;11223;49.968;9.062;2023-04-25T06:18:19;7.07;;;6.37;;
22113;SDS011;11223;49.968;9.062;2023-04-25T06:20:45;10.03;;;7.53;;
22113;SDS011;11223;49.968;9.062;2023-04-25T06:23:10;8.77;;;7.27;;
22113;SDS011;11223;49.968;9.062;2023-04-25T06:25:36;7.20;;;6.50;;
22113;SDS011;11223;49.968;9.062;2023-04-25T06:28:01;8.13;;;7.07;;
22113;SDS011;11223;49.968;9.062;2023-04-25T06:30:27;7.10;;;6.40;;
22113;SDS011;11223;49.968;9.062;2023-04-25T06:32:53;6.60;;;5.97;;
22113;SDS011;11223;49.968;9.062;2023-04-25T06:35:18;8.90;;;6.97;;
22113;SDS011;11223;49.968;9.062;2023-04-25T06:37:44;5.47;;;4.95;;
22113;SDS011;11223;49.968;9.062;2023-04-25T06:40:10;7.13;;;5.40;;
22113;SDS011;11223;49.968;9.062;2023-04-25T06:42:36;7.10;;;6.40;;
22113;SDS011;11223;49.968;9.062;2023-04-25T06:45:01;8.90;;;5.57;;
22113;SDS011;11223;49.968;9.062;2023-04-25T06:47:27;11.13;;;5.40;;
22113;SDS011;11223;49.968;9.062;2023-04-25T06:49:54;6.45;;;5.70;;
22113;SDS011;11223;49.968;9.062;2023-04-25T06:52:20;7.53;;;6.83;;
22113;SDS011;11223;49.968;9.062;2023-04-25T06:54:46;6.03;;;5.20;;
22113;SDS011;11223;49.968;9.062;2023-04-25T06:57:11;7.93;;;5.40;;
22113;SDS011;11223;49.968;9.062;2023-04-25T06:59:37;7.17;;;4.80;;
22113;SDS011;11223;49.968;9.062;2023-04-25T07:02:02;4.77;;;4.30;;
22113;SDS011;11223;49.968;9.062;2023-04-25T07:04:28;5.47;;;4.97;;
22113;SDS011;11223;49.968;9.062;2023-04-25T07:06:55;5.57;;;5.00;;
22113;SDS011;11223;49.968;9.062;2023-04-25T07:09:21;4.13;;;3.73;;
22113;SDS011;11223;49.968;9.062;2023-04-25T07:11:46;4.10;;;3.60;;
22113;SDS011;11223;49.968;9.062;2023-04-25T07:14:12;6.53;;;3.40;;
22113;SDS011;11223;49.968;9.062;2023-04-25T07:16:38;3.20;;;2.90;;
22113;SDS011;11223;49.968;9.062;2023-04-25T07:19:03;4.23;;;2.83;;
22113;SDS011;11223;49.968;9.062;2023-04-25T07:21:29;3.93;;;3.53;;
22113;SDS011;11223;49.968;9.062;2023-04-25T07:23:55;6.88;;;3.13;;
22113;SDS011;11223;49.968;9.062;2023-04-25T07:26:21;3.27;;;2.97;;
22113;SDS011;11223;49.968;9.062;2023-04-25T07:28:47;6.30;;;2.93;;
22113;SDS011;11223;49.968;9.062;2023-04-25T07:31:15;6.60;;;3.92;;
22113;SDS011;11223;49.968;9.062;2023-04-25T07:33:43;3.45;;;2.65;;
22113;SDS011;11223;49.968;9.062;2023-04-25T07:36:12;5.07;;;3.15;;
22113;SDS011;11223;49.968;9.062;2023-04-25T07:38:38;3.38;;;3.13;;
22113;SDS011;11223;49.968;9.062;2023-04-25T07:41:03;3.13;;;2.80;;
22113;SDS011;11223;49.968;9.062;2023-04-25T07:43:29;3.83;;;3.03;;
22113;SDS011;11223;49.968;9.062;2023-04-25T07:45:55;3.27;;;2.97;;
22113;SDS011;11223;49.968;9.062;2023-04-25T07:48:21;5.65;;;3.67;;
22113;SDS011;11223;49.968;9.062;2023-04-25T07:50:46;3.53;;;3.10;;
22113;SDS011;11223;49.968;9.062;2023-04-25T07:53:12;4.63;;;4.20;;
22113;SDS011;11223;49.968;9.062;2023-04-25T07:55:38;6.10;;;3.40;;
22113;SDS011;11223;49.968;9.062;2023-04-25T07:58:05;3.65;;;2.95;;
22113;SDS011;11223;49.968;9.062;2023-04-25T08:00:31;4.25;;;3.22;;
22113;SDS011;11223;49.968;9.062;2023-04-25T08:02:57;3.93;;;3.60;;
22113;SDS011;11223;49.968;9.062;2023-04-25T08:05:22;4.43;;;3.90;;
22113;SDS011;11223;49.968;9.062;2023-04-25T08:07:48;5.70;;;3.50;;
22113;SDS011;11223;49.968;9.062;2023-04-25T08:10:13;4.87;;;3.63;;
22113;SDS011;11223;49.968;9.062;2023-04-25T08:12:39;3.65;;;3.35;;
22113;SDS011;11223;49.968;9.062;2023-04-25T08:15:05;4.30;;;3.90;;
22113;SDS011;11223;49.968;9.062;2023-04-25T08:17:31;4.28;;;3.60;;
22113;SDS011;11223;49.968;9.062;2023-04-25T08:19:57;6.37;;;3.27;;
22113;SDS011;11223;49.968;9.062;2023-04-25T08:22:22;3.63;;;3.30;;
22113;SDS011;11223;49.968;9.062;2023-04-25T08:24:48;3.50;;;2.97;;
22113;SDS011;11223;49.968;9.062;2023-04-25T08:27:13;3.63;;;2.93;;
22113;SDS011;11223;49.968;9.062;2023-04-25T08:29:39;3.50;;;2.90;;
22113;SDS011;11223;49.968;9.062;2023-04-25T08:32:06;2.90;;;2.58;;
22113;SDS011;11223;49.968;9.062;2023-04-25T08:34:31;5.33;;;3.10;;
22113;SDS011;11223;49.968;9.062;2023-04-25T08:36:57;3.67;;;3.37;;
22113;SDS011;11223;49.968;9.062;2023-04-25T08:39:22;3.70;;;2.70;;
22113;SDS011;11223;49.968;9.062;2023-04-25T08:41:48;3.13;;;2.73;;
22113;SDS011;11223;49.968;9.062;2023-04-25T08:44:14;4.13;;;2.80;;
22113;SDS011;11223;49.968;9.062;2023-04-25T08:46:41;9.52;;;3.60;;
22113;SDS011;11223;49.968;9.062;2023-04-25T08:49:08;4.13;;;3.20;;
22113;SDS011;11223;49.968;9.062;2023-04-25T08:51:35;4.90;;;2.80;;
22113;SDS011;11223;49.968;9.062;2023-04-25T08:54:11;3.38;;;3.08;;
22113;SDS011;11223;49.968;9.062;2023-04-25T08:56:38;4.03;;;3.60;;
22113;SDS011;11223;49.968;9.062;2023-04-25T08:59:11;4.38;;;3.35;;
22113;SDS011;11223;49.968;9.062;2023-04-25T09:01:37;3.77;;;3.10;;
22113;SDS011;11223;49.968;9.062;2023-04-25T09:04:03;3.30;;;2.50;;
22113;SDS011;11223;49.968;9.062;2023-04-25T09:06:29;3.37;;;3.07;;
22113;SDS011;11223;49.968;9.062;2023-04-25T09:09:01;6.20;;;3.42;;
22113;SDS011;11223;49.968;9.062;2023-04-25T09:11:34;6.40;;;3.42;;
22113;SDS011;11223;49.968;9.062;2023-04-25T09:14:16;4.10;;;3.50;;
22113;SDS011;11223;49.968;9.062;2023-04-25T09:19:30;4.40;;;3.53;;
22113;SDS011;11223;49.968;9.062;2023-04-25T09:21:59;3.40;;;2.90;;
22113;SDS011;11223;49.968;9.062;2023-04-25T09:24:41;4.07;;;3.47;;
22113;SDS011;11223;49.968;9.062;2023-04-25T09:27:10;3.67;;;2.97;;
22113;SDS011;11223;49.968;9.062;2023-04-25T09:29:40;4.80;;;3.60;;
22113;SDS011;11223;49.968;9.062;2023-04-25T09:32:22;3.25;;;2.85;;
22113;SDS011;11223;49.968;9.062;2023-04-25T09:34:49;3.22;;;2.90;;
22113;SDS011;11223;49.968;9.062;2023-04-25T09:37:17;3.50;;;3.20;;
22113;SDS011;11223;49.968;9.062;2023-04-25T09:39:46;3.80;;;3.38;;
22113;SDS011;11223;49.968;9.062;2023-04-25T09:42:13;3.17;;;2.88;;
22113;SDS011;11223;49.968;9.062;2023-04-25T09:44:41;3.85;;;3.05;;
22113;SDS011;11223;49.968;9.062;2023-04-25T09:47:14;3.60;;;3.00;;
22113;SDS011;11223;49.968;9.062;2023-04-25T09:49:43;3.70;;;3.10;;
22113;SDS011;11223;49.968;9.062;2023-04-25T09:52:22;3.28;;;2.65;;
22113;SDS011;11223;49.968;9.062;2023-04-25T09:54:49;4.15;;;3.00;;
22113;SDS011;11223;49.968;9.062;2023-04-25T09:57:19;3.15;;;2.85;;
22113;SDS011;11223;49.968;9.062;2023-04-25T09:59:47;3.35;;;2.90;;
22113;SDS011;11223;49.968;9.062;2023-04-25T10:02:15;4.88;;;2.75;;
22113;SDS011;11223;49.968;9.062;2023-04-25T10:04:44;2.88;;;2.67;;
22113;SDS011;11223;49.968;9.062;2023-04-25T10:07:12;3.83;;;3.15;;
22113;SDS011;11223;49.968;9.062;2023-04-25T10:09:39;3.60;;;3.05;;
22113;SDS011;11223;49.968;9.062;2023-04-25T10:12:05;5.32;;;3.83;;
22113;SDS011;11223;49.968;9.062;2023-04-25T10:14:32;4.13;;;3.67;;
22113;SDS011;11223;49.968;9.062;2023-04-25T10:16:58;4.50;;;3.30;;
22113;SDS011;11223;49.968;9.062;2023-04-25T10:19:25;4.70;;;4.18;;
22113;SDS011;11223;49.968;9.062;2023-04-25T10:21:52;4.05;;;2.85;;
22113;SDS011;11223;49.968;9.062;2023-04-25T10:24:31;4.20;;;3.80;;
22113;SDS011;11223;49.968;9.062;2023-04-25T10:26:57;3.50;;;3.20;;
22113;SDS011;11223;49.968;9.062;2023-04-25T10:29:24;7.28;;;3.70;;
22113;SDS011;11223;49.968;9.062;2023-04-25T10:31:50;6.75;;;3.55;;
22113;SDS011;11223;49.968;9.062;2023-04-25T10:34:16;4.47;;;3.63;;
22113;SDS011;11223;49.968;9.062;2023-04-25T10:36:42;5.05;;;3.78;;
22113;SDS011;11223;49.968;9.062;2023-04-25T10:39:13;5.45;;;3.63;;
22113;SDS011;11223;49.968;9.062;2023-04-25T10:41:57;4.25;;;3.67;;
22113;SDS011;11223;49.968;9.062;2023-04-25T10:44:27;3.20;;;3.00;;
22113;SDS011;11223;49.968;9.062;2023-04-25T10:46:56;4.05;;;3.65;;
22113;SDS011;11223;49.968;9.062;2023-04-25T10:49:31;4.45;;;4.05;;
22113;SDS011;11223;49.968;9.062;2023-04-25T10:54:47;4.50;;;3.35;;
22113;SDS011;11223;49.968;9.062;2023-04-25T11:00:04;6.13;;;3.30;;
22113;SDS011;11223;49.968;9.062;2023-04-25T11:02:31;3.65;;;2.70;;
22113;SDS011;11223;49.968;9.062;2023-04-25T11:04:56;3.20;;;2.90;;
22113;SDS011;11223;49.968;9.062;2023-04-25T11:10:03;7.97;;;3.42;;
22113;SDS011;11223;49.968;9.062;2023-04-25T11:12:32;3.03;;;2.72;;
22113;SDS011;11223;49.968;9.062;2023-04-25T11:15:02;3.40;;;3.10;;
22113;SDS011;11223;49.968;9.062;2023-04-25T11:17:30;2.70;;;2.50;;
22113;SDS011;11223;49.968;9.062;2023-04-25T11:19:55;2.90;;;2.67;;
22113;SDS011;11223;49.968;9.062;2023-04-25T11:22:21;3.47;;;3.13;;
22113;SDS011;11223;49.968;9.062;2023-04-25T11:24:47;4.68;;;3.60;;
22113;SDS011;11223;49.968;9.062;2023-04-25T11:27:13;4.03;;;3.13;;
22113;SDS011;11223;49.968;9.062;2023-04-25T11:29:40;6.80;;;5.00;;
22113;SDS011;11223;49.968;9.062;2023-04-25T11:32:06;8.45;;;5.00;;
22113;SDS011;11223;49.968;9.062;2023-04-25T11:34:32;7.50;;;4.63;;
22113;SDS011;11223;49.968;9.062;2023-04-25T11:36:59;6.55;;;4.55;;
22113;SDS011;11223;49.968;9.062;2023-04-25T11:39:25;5.68;;;4.55;;
22113;SDS011;11223;49.968;9.062;2023-04-25T11:41:52;5.68;;;4.90;;
22113;SDS011;11223;49.968;9.062;2023-04-25T11:44:18;5.05;;;4.20;;
22113;SDS011;11223;49.968;9.062;2023-04-25T11:46:45;6.85;;;4.18;;
22113;SDS011;11223;49.968;9.062;2023-04-25T11:49:11;4.22;;;3.83;;
22113;SDS011;11223;49.968;9.062;2023-04-25T11:51:43;4.90;;;4.43;;
22113;SDS011;11223;49.968;9.062;2023-04-25T11:54:12;4.05;;;3.75;;
22113;SDS011;11223;49.968;9.062;2023-04-25T11:56:41;5.30;;;4.00;;
22113;SDS011;11223;49.968;9.062;2023-04-25T11:59:07;4.20;;;3.80;;
22113;SDS011;11223;49.968;9.062;2023-04-25T12:01:33;4.73;;;3.87;;
22113;SDS011;11223;49.968;9.062;2023-04-25T12:04:10;4.38;;;4.07;;
22113;SDS011;11223;49.968;9.062;2023-04-25T12:06:37;4.50;;;4.15;;
22113;SDS011;11223;49.968;9.062;2023-04-25T12:09:06;4.80;;;3.67;;
22113;SDS011;11223;49.968;9.062;2023-04-25T12:11:40;3.60;;;3.30;;
22113;SDS011;11223;49.968;9.062;2023-04-25T12:14:33;4.13;;;3.25;;
22113;SDS011;11223;49.968;9.062;2023-04-25T12:17:00;3.03;;;2.80;;
22113;SDS011;11223;49.968;9.062;2023-04-25T12:19:31;2.85;;;2.55;;
22113;SDS011;11223;49.968;9.062;2023-04-25T12:22:01;2.95;;;2.75;;
22113;SDS011;11223;49.968;9.062;2023-04-25T12:24:32;3.63;;;2.85;;
22113;SDS011;11223;49.968;9.062;2023-04-25T12:27:00;3.55;;;3.10;;
22113;SDS011;11223;49.968;9.062;2023-04-25T12:29:27;3.45;;;2.38;;
22113;SDS011;11223;49.968;9.062;2023-04-25T12:31:54;4.32;;;3.50;;
22113;SDS011;11223;49.968;9.062;2023-04-25T12:34:21;2.92;;;2.72;;
22113;SDS011;11223;49.968;9.062;2023-04-25T12:36:47;3.17;;;2.50;;
22113;SDS011;11223;49.968;9.062;2023-04-25T12:39:23;3.20;;;2.90;;
22113;SDS011;11223;49.968;9.062;2023-04-25T12:41:50;10.48;;;3.42;;
22113;SDS011;11223;49.968;9.062;2023-04-25T12:44:18;3.00;;;2.70;;
22113;SDS011;11223;49.968;9.062;2023-04-25T12:46:44;2.70;;;2.50;;
22113;SDS011;11223;49.968;9.062;2023-04-25T12:49:10;3.20;;;2.67;;
22113;SDS011;11223;49.968;9.062;2023-04-25T12:51:36;4.93;;;2.50;;
22113;SDS011;11223;49.968;9.062;2023-04-25T12:54:02;3.27;;;2.97;;
22113;SDS011;11223;49.968;9.062;2023-04-25T12:56:29;3.38;;;2.85;;
22113;SDS011;11223;49.968;9.062;2023-04-25T12:58:55;3.13;;;2.72;;
22113;SDS011;11223;49.968;9.062;2023-04-25T13:01:21;2.75;;;2.55;;
22113;SDS011;11223;49.968;9.062;2023-04-25T13:03:48;2.67;;;2.25;;
22113;SDS011;11223;49.968;9.062;2023-04-25T13:06:14;3.87;;;2.90;;
22113;SDS011;11223;49.968;9.062;2023-04-25T13:08:40;4.00;;;2.78;;
22113;SDS011;11223;49.968;9.062;2023-04-25T13:11:07;3.20;;;2.58;;
22113;SDS011;11223;49.968;9.062;2023-04-25T13:13:33;2.97;;;2.78;;
22113;SDS011;11223;49.968;9.062;2023-04-25T13:16:00;3.40;;;2.60;;
22113;SDS011;11223;49.968;9.062;2023-04-25T13:18:29;3.45;;;2.20;;
22113;SDS011;11223;49.968;9.062;2023-04-25T13:20:55;4.25;;;2.90;;
22113;SDS011;11223;49.968;9.062;2023-04-25T13:23:22;4.10;;;2.47;;
22113;SDS011;11223;49.968;9.062;2023-04-25T13:25:49;2.95;;;2.65;;
22113;SDS011;11223;49.968;9.062;2023-04-25T13:28:14;3.97;;;2.50;;
22113;SDS011;11223;49.968;9.062;2023-04-25T13:30:41;3.72;;;2.80;;
22113;SDS011;11223;49.968;9.062;2023-04-25T13:33:07;7.15;;;2.83;;
22113;SDS011;11223;49.968;9.062;2023-04-25T13:35:33;3.07;;;2.47;;
22113;SDS011;11223;49.968;9.062;2023-04-25T13:37:59;4.15;;;2.95;;
22113;SDS011;11223;49.968;9.062;2023-04-25T13:40:25;3.63;;;3.20;;
22113;SDS011;11223;49.968;9.062;2023-04-25T13:42:52;3.15;;;2.20;;
22113;SDS011;11223;49.968;9.062;2023-04-25T13:45:18;2.90;;;2.43;;
22113;SDS011;11223;49.968;9.062;2023-04-25T13:47:43;4.60;;;2.65;;
22113;SDS011;11223;49.968;9.062;2023-04-25T13:50:09;2.53;;;2.00;;
22113;SDS011;11223;49.968;9.062;2023-04-25T13:52:35;6.73;;;2.20;;
22113;SDS011;11223;49.968;9.062;2023-04-25T13:55:01;3.30;;;2.77;;
22113;SDS011;11223;49.968;9.062;2023-04-25T13:57:28;4.13;;;2.10;;
22113;SDS011;11223;49.968;9.062;2023-04-25T13:59:57;4.55;;;2.47;;
22113;SDS011;11223;49.968;9.062;2023-04-25T14:02:22;2.33;;;2.13;;
22113;SDS011;11223;49.968;9.062;2023-04-25T14:04:48;2.50;;;2.30;;
22113;SDS011;11223;49.968;9.062;2023-04-25T14:07:14;7.23;;;2.20;;
22113;SDS011;11223;49.968;9.062;2023-04-25T14:09:43;3.45;;;2.95;;
22113;SDS011;11223;49.968;9.062;2023-04-25T14:12:09;3.63;;;2.50;;
22113;SDS011;11223;49.968;9.062;2023-04-25T14:14:35;3.45;;;2.65;;
22113;SDS011;11223;49.968;9.062;2023-04-25T14:17:00;2.70;;;2.50;;
22113;SDS011;11223;49.968;9.062;2023-04-25T14:19:26;3.20;;;2.80;;
22113;SDS011;11223;49.968;9.062;2023-04-25T14:21:52;2.70;;;2.50;;
22113;SDS011;11223;49.968;9.062;2023-04-25T14:24:18;2.70;;;2.50;;
22113;SDS011;11223;49.968;9.062;2023-04-25T14:26:43;3.70;;;2.63;;
22113;SDS011;11223;49.968;9.062;2023-04-25T14:29:09;4.73;;;2.70;;
22113;SDS011;11223;49.968;9.062;2023-04-25T14:31:36;4.53;;;2.70;;
22113;SDS011;11223;49.968;9.062;2023-04-25T14:34:03;4.10;;;2.80;;
22113;SDS011;11223;49.968;9.062;2023-04-25T14:36:29;4.20;;;2.50;;
22113;SDS011;11223;49.968;9.062;2023-04-25T14:38:55;3.42;;;2.85;;
22113;SDS011;11223;49.968;9.062;2023-04-25T14:41:22;5.30;;;3.15;;
22113;SDS011;11223;49.968;9.062;2023-04-25T14:43:48;2.70;;;2.50;;
22113;SDS011;11223;49.968;9.062;2023-04-25T14:46:13;5.73;;;3.17;;
22113;SDS011;11223;49.968;9.062;2023-04-25T14:48:39;3.10;;;2.80;;
22113;SDS011;11223;49.968;9.062;2023-04-25T14:51:05;6.80;;;3.10;;
22113;SDS011;11223;49.968;9.062;2023-04-25T14:53:30;2.70;;;2.50;;
22113;SDS011;11223;49.968;9.062;2023-04-25T14:55:57;2.67;;;2.20;;